createdAt,value
2022-08-07T00:00:32.068Z,101066.00
2022-08-07T00:03:36.566Z,101061.47
2022-08-07T00:06:51.130Z,101058.41
2022-08-07T00:10:04.872Z,101050.94
2022-08-07T00:13:25.533Z,101052.88
2022-08-07T00:16:28.296Z,101060.25
2022-08-07T00:20:00.380Z,101047.50
2022-08-07T00:22:52.792Z,101049.53
2022-08-07T00:26:00.060Z,101053.00
2022-08-07T00:29:03.316Z,101050.88
2022-08-07T00:32:07.619Z,101048.50
2022-08-07T00:35:09.811Z,101046.63
2022-08-07T00:38:11.252Z,101047.25
2022-08-07T00:41:15.285Z,101048.34
2022-08-07T00:44:17.180Z,101042.31
2022-08-07T00:48:07.951Z,101048.69
2022-08-07T00:50:46.297Z,101044.09
2022-08-07T00:53:55.833Z,101045.84
2022-08-07T00:56:57.870Z,101045.84
2022-08-07T00:59:59.674Z,101052.38
2022-08-07T01:03:01.307Z,101037.28
2022-08-07T01:06:03.180Z,101039.63
2022-08-07T01:09:05.352Z,101039.19
2022-08-07T01:12:29.610Z,101035.78
2022-08-07T01:15:35.692Z,101037.97
2022-08-07T01:18:55.930Z,101037.44
2022-08-07T01:22:00.077Z,101044.44
2022-08-07T01:25:40.037Z,101041.47
2022-08-07T01:28:33.984Z,101039.84
2022-08-07T01:31:41.584Z,101039.00
2022-08-07T01:34:47.201Z,101055.06
2022-08-07T01:37:49.416Z,101051.84
2022-08-07T01:40:59.330Z,101052.78
2022-08-07T01:44:02.341Z,101058.53
2022-08-07T01:47:14.450Z,101062.25
2022-08-07T01:50:31.146Z,101052.25
2022-08-07T01:54:12.806Z,101041.91
2022-08-07T01:57:06.868Z,101050.31
2022-08-07T02:00:13.681Z,101047.56
2022-08-07T02:03:26.303Z,101041.44
2022-08-07T02:06:34.126Z,101033.97
2022-08-07T02:09:52.967Z,101030.63
2022-08-07T02:12:59.825Z,101038.84
2022-08-07T02:16:11.793Z,101033.88
2022-08-07T02:20:06.624Z,101038.19
2022-08-07T02:22:41.058Z,101020.88
2022-08-07T02:26:31.623Z,101028.72
2022-08-07T02:29:13.635Z,101029.38
2022-08-07T02:32:18.541Z,101022.97
2022-08-07T02:36:30.864Z,101021.94
2022-08-07T02:38:50.856Z,101019.84
2022-08-07T02:42:01.662Z,101024.97
2022-08-07T02:45:57.742Z,101025.19
2022-08-07T02:48:30.503Z,101019.34
2022-08-07T02:51:42.785Z,101018.41
2022-08-07T02:54:56.335Z,101010.25
2022-08-07T02:58:03.985Z,101018.50
2022-08-07T03:01:15.922Z,101019.81
2022-08-07T03:04:22.992Z,101007.09
2022-08-07T03:07:43.201Z,101007.69
2022-08-07T03:10:50.396Z,101007.81
2022-08-07T03:14:01.762Z,101005.38
2022-08-07T03:17:05.559Z,101001.56
2022-08-07T03:20:12.171Z,100994.31
2022-08-07T03:23:19.383Z,101000.72
2022-08-07T03:26:24.769Z,101009.53
2022-08-07T03:29:37.786Z,101003.81
2022-08-07T03:32:49.122Z,101015.66
2022-08-07T03:36:00.742Z,101011.28
2022-08-07T03:39:15.329Z,101010.66
2022-08-07T03:42:20.011Z,101017.25
2022-08-07T03:45:30.969Z,101022.59
2022-08-07T03:49:02.044Z,101015.53
2022-08-07T03:52:22.810Z,101019.63
2022-08-07T03:55:58.441Z,101014.78
2022-08-07T03:59:09.384Z,101016.09
2022-08-07T04:02:14.598Z,101019.75
2022-08-07T04:05:20.563Z,101019.06
2022-08-07T04:08:32.421Z,101021.66
2022-08-07T04:12:15.529Z,101020.88
2022-08-07T04:15:00.136Z,101019.81
2022-08-07T04:18:56.633Z,101023.56
2022-08-07T04:21:26.601Z,101022.03
2022-08-07T04:24:39.263Z,101026.72
2022-08-07T04:27:59.276Z,101030.63
2022-08-07T04:31:03.253Z,101023.75
2022-08-07T04:34:16.403Z,101031.56
2022-08-07T04:37:20.533Z,101036.19
2022-08-07T04:40:29.566Z,101031.38
2022-08-07T04:44:12.475Z,101047.63
2022-08-07T04:47:23.638Z,101048.38
2022-08-07T04:51:20.833Z,101044.09
2022-08-07T04:54:43.424Z,101050.31
2022-08-07T04:58:31.399Z,101054.31
2022-08-07T05:01:43.148Z,101061.00
2022-08-07T05:05:02.757Z,101055.75
2022-08-07T05:09:00.025Z,101062.34
2022-08-07T05:12:06.622Z,101059.88
2022-08-07T05:15:23.650Z,101061.41
2022-08-07T05:18:32.096Z,101068.50
2022-08-07T05:21:59.153Z,101069.81
2022-08-07T05:25:00.426Z,101074.69
2022-08-07T05:28:19.959Z,101071.72
2022-08-07T05:31:35.082Z,101071.84
2022-08-07T05:34:42.364Z,101075.19
2022-08-07T05:37:46.015Z,101074.81
2022-08-07T05:41:14.309Z,101075.34
2022-08-07T05:44:29.301Z,101078.53
2022-08-07T05:47:38.142Z,101077.41
2022-08-07T05:50:59.336Z,101076.59
2022-08-07T05:54:09.648Z,101087.59
2022-08-07T05:57:30.366Z,101080.31
2022-08-07T06:00:38.413Z,101082.25
2022-08-07T06:03:58.854Z,101089.88
2022-08-07T06:07:09.212Z,101093.50
2022-08-07T06:10:26.765Z,101096.59
2022-08-07T06:14:10.641Z,101092.97
2022-08-07T06:16:56.480Z,101097.41
2022-08-07T06:20:12.408Z,101096.59
2022-08-07T06:24:37.935Z,101099.44
2022-08-07T06:26:50.484Z,101095.13
2022-08-07T06:29:52.941Z,101095.78
2022-08-07T06:32:54.713Z,101090.75
2022-08-07T06:36:13.351Z,101085.47
2022-08-07T06:40:16.058Z,101085.19
2022-08-07T06:42:53.231Z,101085.94
2022-08-07T06:46:12.806Z,101095.19
2022-08-07T06:49:15.310Z,101089.91
2022-08-07T06:52:17.740Z,101089.38
2022-08-07T06:55:54.003Z,101084.97
2022-08-07T07:00:11.978Z,101090.00
2022-08-07T07:02:54.513Z,101087.81
2022-08-07T07:06:05.062Z,101083.28
2022-08-07T07:09:26.670Z,101078.94
2022-08-07T07:12:56.719Z,101077.84
2022-08-07T07:16:05.185Z,101088.91
2022-08-07T07:19:37.306Z,101085.28
2022-08-07T07:22:35.931Z,101084.63
2022-08-07T07:26:35.061Z,101091.91
2022-08-07T07:29:39.822Z,101082.53
2022-08-07T07:32:38.520Z,101081.81
2022-08-07T07:36:03.925Z,101075.69
2022-08-07T07:39:08.789Z,101073.91
2022-08-07T07:42:13.975Z,101074.00
2022-08-07T07:45:22.756Z,101072.53
2022-08-07T07:48:46.514Z,101067.59
2022-08-07T07:51:58.568Z,101068.16
2022-08-07T07:55:03.390Z,101065.00
2022-08-07T07:58:05.753Z,101065.25
2022-08-07T08:02:03.684Z,101058.16
2022-08-07T08:04:32.651Z,101060.53
2022-08-07T08:07:42.517Z,101054.06
2022-08-07T08:11:02.194Z,101059.69
2022-08-07T08:14:05.363Z,101061.50
2022-08-07T08:17:56.010Z,101058.38
2022-08-07T08:20:34.110Z,101054.31
2022-08-07T08:23:56.616Z,101055.78
2022-08-07T08:27:10.355Z,101060.72
2022-08-07T08:30:14.253Z,101059.50
2022-08-07T08:33:22.021Z,101055.34
2022-08-07T08:36:30.474Z,101056.44
2022-08-07T08:39:39.708Z,101047.47
2022-08-07T08:43:07.046Z,101047.81
2022-08-07T08:46:20.506Z,101042.84
2022-08-07T08:50:02.379Z,101036.94
2022-08-07T08:53:20.262Z,101033.41
2022-08-07T08:56:26.788Z,101045.03
2022-08-07T08:59:48.024Z,101044.44
2022-08-07T09:03:07.598Z,101028.59
2022-08-07T09:06:31.373Z,101032.50
2022-08-07T09:09:48.987Z,101022.44
2022-08-07T09:13:16.313Z,101024.38
2022-08-07T09:16:45.605Z,101028.75
2022-08-07T09:20:34.715Z,101021.41
2022-08-07T09:24:54.123Z,101014.13
2022-08-07T09:27:59.753Z,101008.81
2022-08-07T09:31:08.997Z,101018.81
2022-08-07T09:34:16.573Z,101019.31
2022-08-07T09:37:53.621Z,101012.00
2022-08-07T09:41:27.746Z,101006.47
2022-08-07T09:47:25.421Z,100996.47
2022-08-07T09:50:04.018Z,100991.59
2022-08-07T09:52:42.785Z,100994.19
2022-08-07T09:56:15.041Z,100997.56
2022-08-07T09:59:46.480Z,100983.50
2022-08-07T10:04:07.084Z,100978.66
2022-08-07T10:07:24.432Z,100977.22
2022-08-07T10:11:07.701Z,100975.19
2022-08-07T10:14:36.505Z,100975.66
2022-08-07T10:18:00.702Z,100963.94
2022-08-07T10:21:19.730Z,100960.53
2022-08-07T10:24:48.140Z,100960.13
2022-08-07T10:28:12.830Z,100943.41
2022-08-07T10:31:39.138Z,100940.13
2022-08-07T10:35:20.522Z,100941.13
2022-08-07T10:38:42.120Z,100939.13
2022-08-07T10:42:40.308Z,100928.97
2022-08-07T10:46:17.946Z,100940.06
2022-08-07T10:49:49.585Z,100926.78
2022-08-07T10:53:08.078Z,100935.13
2022-08-07T10:56:45.917Z,100922.88
2022-08-07T11:00:36.620Z,100918.09
2022-08-07T11:03:47.886Z,100925.06
2022-08-07T11:07:59.629Z,100919.47
2022-08-07T11:11:01.149Z,100905.25
2022-08-07T11:14:44.973Z,100905.03
2022-08-07T11:17:44.324Z,100893.19
2022-08-07T11:21:15.181Z,100897.91
2022-08-07T11:24:38.932Z,100883.19
2022-08-07T11:28:19.897Z,100881.34
2022-08-07T11:31:33.270Z,100889.09
2022-08-07T11:35:11.897Z,100878.56
2022-08-07T11:38:29.968Z,100876.00
2022-08-07T11:42:01.795Z,100881.72
2022-08-07T11:45:15.823Z,100876.25
2022-08-07T11:49:27.402Z,100874.91
2022-08-07T11:52:45.462Z,100859.03
2022-08-07T11:56:27.144Z,100864.81
2022-08-07T12:00:10.247Z,100851.22
2022-08-07T12:03:50.822Z,100849.78
2022-08-07T12:07:08.005Z,100855.53
2022-08-07T12:10:37.415Z,100842.97
2022-08-07T12:13:53.675Z,100849.06
2022-08-07T12:17:01.349Z,100836.59
2022-08-07T12:20:30.799Z,100834.63
2022-08-07T12:24:38.347Z,100839.41
2022-08-07T12:28:08.652Z,100841.59
2022-08-07T12:31:22.412Z,100828.59
2022-08-07T12:34:28.989Z,100824.91
2022-08-07T12:38:10.353Z,100828.00
2022-08-07T12:40:55.296Z,100820.47
2022-08-07T12:44:03.769Z,100823.00
2022-08-07T12:47:21.362Z,100820.63
2022-08-07T12:50:39.286Z,100814.03
2022-08-07T12:54:03.370Z,100810.16
2022-08-07T12:57:25.098Z,100801.31
2022-08-07T13:00:50.054Z,100807.09
2022-08-07T13:04:34.113Z,100809.06
2022-08-07T13:08:14.076Z,100802.81
2022-08-07T13:12:02.973Z,100794.63
2022-08-07T13:15:31.532Z,100786.53
2022-08-07T13:18:44.612Z,100788.75
2022-08-07T13:22:06.156Z,100790.28
2022-08-07T13:25:31.801Z,100779.72
2022-08-07T13:28:58.913Z,100779.41
2022-08-07T13:32:15.277Z,100772.81
2022-08-07T13:36:01.026Z,100770.25
2022-08-07T13:40:34.313Z,100763.94
2022-08-07T13:43:02.352Z,100757.31
2022-08-07T13:46:10.993Z,100755.31
2022-08-07T13:50:34.507Z,100760.06
2022-08-07T13:53:00.345Z,100750.16
2022-08-07T13:56:04.214Z,100754.25
2022-08-07T13:59:12.280Z,100746.41
2022-08-07T14:02:33.320Z,100746.78
2022-08-07T14:05:44.182Z,100743.69
2022-08-07T14:08:54.553Z,100740.41
2022-08-07T14:12:07.397Z,100742.06
2022-08-07T14:15:27.418Z,100735.03
2022-08-07T14:18:45.783Z,100726.34
2022-08-07T14:22:03.295Z,100729.44
2022-08-07T14:25:15.732Z,100730.41
2022-08-07T14:28:19.192Z,100721.16
2022-08-07T14:31:24.883Z,100708.66
2022-08-07T14:34:47.902Z,100719.16
2022-08-07T14:38:03.541Z,100712.94
2022-08-07T14:41:14.683Z,100713.72
2022-08-07T14:44:18.843Z,100712.56
2022-08-07T14:47:23.116Z,100705.66
2022-08-07T14:50:28.930Z,100704.22
2022-08-07T14:57:19.566Z,100702.09
2022-08-07T15:03:53.518Z,100698.91
2022-08-07T15:06:56.966Z,100694.88
2022-08-07T15:13:25.466Z,100685.75
2022-08-07T15:16:41.596Z,100689.53
2022-08-07T15:20:32.429Z,100691.63
2022-08-07T15:27:10.439Z,100682.75
2022-08-07T15:30:16.853Z,100687.97
2022-08-07T15:33:22.018Z,100672.22
2022-08-07T15:37:04.211Z,100668.09
2022-08-07T15:43:53.097Z,100684.97
2022-08-07T15:47:09.033Z,100672.03
2022-08-07T15:51:01.444Z,100675.06
2022-08-07T15:53:52.707Z,100664.25
2022-08-07T15:56:59.714Z,100668.56
2022-08-07T16:00:04.087Z,100672.03
2022-08-07T16:03:46.360Z,100663.53
2022-08-07T16:06:56.492Z,100665.28
2022-08-07T16:10:24.904Z,100649.41
2022-08-07T16:13:57.469Z,100656.59
2022-08-07T16:18:01.448Z,100649.38
2022-08-07T16:22:02.260Z,100653.66
2022-08-07T16:24:52.629Z,100644.34
2022-08-07T16:30:08.898Z,100647.38
2022-08-07T16:32:07.125Z,100640.59
2022-08-07T16:35:58.629Z,100633.34
2022-08-07T16:39:20.932Z,100638.75
2022-08-07T16:43:03.679Z,100637.63
2022-08-07T16:50:27.838Z,100638.25
2022-08-07T16:54:01.382Z,100640.31
2022-08-07T16:57:15.299Z,100645.63
2022-08-07T17:00:29.633Z,100650.06
2022-08-07T17:04:00.109Z,100637.31
2022-08-07T17:07:51.327Z,100646.84
2022-08-07T17:10:55.603Z,100647.19
2022-08-07T17:14:19.049Z,100649.88
2022-08-07T17:17:46.525Z,100644.47
2022-08-07T17:20:49.548Z,100655.81
2022-08-07T17:24:27.624Z,100652.97
2022-08-07T17:27:50.772Z,100658.88
2022-08-07T17:31:00.277Z,100655.94
2022-08-07T17:35:40.184Z,100656.44
2022-08-07T17:38:33.878Z,100661.03
2022-08-07T17:42:02.065Z,100655.94
2022-08-07T17:45:14.762Z,100671.03
2022-08-07T17:48:31.098Z,100657.44
2022-08-07T17:51:59.680Z,100664.19
2022-08-07T17:55:07.775Z,100666.38
2022-08-07T17:58:30.864Z,100673.72
2022-08-07T18:02:03.949Z,100678.09
2022-08-07T18:05:21.752Z,100675.28
2022-08-07T18:08:31.184Z,100677.88
2022-08-07T18:12:07.105Z,100682.88
2022-08-07T18:15:22.520Z,100692.13
2022-08-07T18:18:46.955Z,100685.13
2022-08-07T18:22:06.345Z,100692.03
2022-08-07T18:25:19.041Z,100691.97
2022-08-07T18:28:58.442Z,100686.22
2022-08-07T18:32:24.621Z,100690.34
2022-08-07T18:35:55.718Z,100695.91
2022-08-07T18:40:06.708Z,100700.78
2022-08-07T18:43:06.270Z,100698.69
2022-08-07T18:46:27.046Z,100710.38
2022-08-07T18:50:33.150Z,100713.41
2022-08-07T18:53:55.757Z,100722.59
2022-08-07T18:57:40.094Z,100725.31
2022-08-07T19:00:54.423Z,100733.16
2022-08-07T19:04:54.583Z,100738.59
2022-08-07T19:08:05.679Z,100732.53
2022-08-07T19:11:36.559Z,100741.97
2022-08-07T19:14:58.377Z,100745.41
2022-08-07T19:18:34.136Z,100747.69
2022-08-07T19:22:04.029Z,100755.41
2022-08-07T19:26:22.998Z,100763.69
2022-08-07T19:30:56.548Z,100761.13
2022-08-07T19:32:17.930Z,100763.97
2022-08-07T19:35:28.203Z,100772.09
2022-08-07T19:38:53.393Z,100768.56
2022-08-07T19:42:08.536Z,100766.53
2022-08-07T19:46:01.090Z,100763.66
2022-08-07T19:48:53.693Z,100771.03
2022-08-07T19:52:00.616Z,100774.75
2022-08-07T19:55:03.136Z,100773.88
2022-08-07T19:58:13.718Z,100773.88
2022-08-07T20:01:18.231Z,100775.00
2022-08-07T20:04:37.703Z,100773.06
2022-08-07T20:07:47.825Z,100778.22
2022-08-07T20:10:55.992Z,100785.88
2022-08-07T20:13:59.809Z,100791.25
2022-08-07T20:17:05.901Z,100790.06
2022-08-07T20:20:08.583Z,100791.38
2022-08-07T20:23:32.790Z,100793.00
2022-08-07T20:26:45.156Z,100800.84
2022-08-07T20:30:01.969Z,100794.81
2022-08-07T20:33:36.969Z,100799.84
2022-08-07T20:36:33.850Z,100791.38
2022-08-07T20:40:02.652Z,100793.59
2022-08-07T20:43:01.017Z,100795.22
2022-08-07T20:46:28.787Z,100792.53
2022-08-07T20:49:59.635Z,100786.69
2022-08-07T20:52:51.409Z,100793.31
2022-08-07T20:55:57.512Z,100784.31
2022-08-07T20:59:06.040Z,100778.81
2022-08-07T21:02:53.920Z,100781.38
2022-08-07T21:06:21.394Z,100773.81
2022-08-07T21:09:35.458Z,100767.44
2022-08-07T21:12:56.648Z,100779.88
2022-08-07T21:16:01.848Z,100768.50
2022-08-07T21:19:03.935Z,100762.25
2022-08-07T21:22:10.679Z,100767.03
2022-08-07T21:25:29.559Z,100771.28
2022-08-07T21:28:54.983Z,100770.75
2022-08-07T21:32:47.505Z,100775.53
2022-08-07T21:35:34.950Z,100763.03
2022-08-07T21:39:45.192Z,100759.88
2022-08-07T21:43:10.804Z,100761.25
2022-08-07T21:46:31.265Z,100762.84
2022-08-07T21:50:02.195Z,100769.19
2022-08-07T21:53:24.066Z,100760.53
2022-08-07T21:56:47.844Z,100761.75
2022-08-07T22:00:23.082Z,100762.88
2022-08-07T22:03:37.390Z,100775.88
2022-08-07T22:06:49.659Z,100770.56
2022-08-07T22:09:55.894Z,100775.94
2022-08-07T22:12:59.959Z,100778.16
2022-08-07T22:16:42.992Z,100784.16
2022-08-07T22:19:40.165Z,100789.78
2022-08-07T22:22:47.486Z,100786.47
2022-08-07T22:25:59.474Z,100791.25
2022-08-07T22:29:13.974Z,100788.78
2022-08-07T22:32:26.376Z,100801.03
2022-08-07T22:35:39.431Z,100798.09
2022-08-07T22:39:01.773Z,100797.84
2022-08-07T22:42:19.664Z,100798.94
2022-08-07T22:46:21.435Z,100803.22
2022-08-07T22:49:37.801Z,100801.72
2022-08-07T22:53:01.284Z,100807.56
2022-08-07T22:56:08.549Z,100808.47
2022-08-07T22:59:37.988Z,100810.94
2022-08-07T23:02:58.467Z,100811.72
2022-08-07T23:06:23.963Z,100806.19
2022-08-07T23:10:05.190Z,100801.34
2022-08-07T23:13:19.331Z,100800.78
2022-08-07T23:16:48.349Z,100805.56
2022-08-07T23:20:51.157Z,100800.94
2022-08-07T23:24:16.879Z,100799.34
2022-08-07T23:28:21.791Z,100801.88
2022-08-07T23:31:42.885Z,100806.81
2022-08-07T23:35:13.044Z,100806.88
2022-08-07T23:38:42.724Z,100802.16
2022-08-07T23:42:21.410Z,100802.41
2022-08-07T23:46:03.072Z,100809.22
2022-08-07T23:49:17.488Z,100808.16
2022-08-07T23:53:05.572Z,100810.13
2022-08-07T23:56:20.829Z,100806.69
